メインページ
METAR-TAF:

METAR-TAF

空港 :

キト, エクアドル

マリスカル・スクレ国際空港

緯度: 0-06-48S, 経度: 78-21-31W, 海抜: 2400m

現時点の気象観測

当レポートは14分前の06:00(UTC)に作成
の風 2kt
気温 13°C
湿度 94%
気圧 1027 hPa
視程10km以上
高度500ftの雲は散在している
高度2600ftの千切れ雲あり
散在霧

METAR: SEQM 280600Z 10002KT 9999 BCFG SCT005 BKN026 13/12 Q1027 NOSIG RMK A3033

時間: 01:14 (06:14 UTC)

予報

当レポートは1時間49分前の04:25(UTC)に作成
予報は28日の 06時(UTC)から 29日の 06時(UTC)まで有効
の風 kt
視程: 8000m
高度500ftの雲はほとんどない
高度2600ftの千切れ雲あり
散在霧
28日の 1200時(UTC)から
変向風 3kt
視程10km以上
高度3000ftの雲は散在している
高度10000ftの千切れ雲あり
28日の 1800時(UTC)から
の風 10kt
視程10km以上
高度3000ftの雲は散在している, 塔状積雲.
高度10000ftの千切れ雲あり
29日の 0000時(UTC)から
北/北東の風 3kt
視程10km以上
高度2600ftの雲は散在している
高度8000ftの雲は散在している

TAF: SEQM 280425Z 2806/2906 00000KT 8000 BCFG FEW005 BKN026 FM281200 VRB03KT 9999 SCT030 BKN100 FM281800 35010KT 9999 SCT030TCU BKN100 FM290000 02003KT 9999 SCT026 SCT080 TX22/2818Z TN11/2811Z

4,000以上の空港の気象観測と天気予報(METAR報とTAF報)

利用可能な観測所は地図上に黄色い丸と赤い丸で示す。

丸の上にカーソルを重ねると観測所名を参照できる。

次にクリックすると気象観測と天気予報を参照できる。

マップの切り替え:黒色「×」印の緑ボタンをクリックして拡大、「-」印の緑ボタンをクリックして縮小、緑色の三角印をクリックして隣りの地図に切り替え


METAR-TAF: